Crawford, NE (69339)

3:33 AM MDT on April 19, 2015 (GMT -0600)
Chadron Municipal | | Change Station
CLOSE
Current Station
Airport
Location: Chadron,
Elevation: 3297 ft
Nearby Weather Stations

Elev 3297 ft 42.84 °N, 103.10 °W | Updated 40 minutes ago

Partly Cloudy
Partly Cloudy
44 °F
Feels Like 39 °F
N
9
Wind Variable Wind from NNW

Today
High -- | Low -- °F
--% Chance of Precip.
Yesterday
High -- | Low -- °F
Precip. -- in
6:06 AM 7:40 PM
New Moon, 1% visible
Pressure 30.07 in
Visibility 10.0 miles
Clouds Scattered Clouds 6000 ft
Windchill 39 °F
Dew Point 34 °F
Humidity 68%
Rainfall 0.01 in
Snow Depth Not available.
UV 0 out of 12
Pollen 4.60 out of 12
Air Quality Not available.
Flu Activity Local Activity
METAR KCDR 190853Z AUTO 34008KT 10SM SCT060 07/01 A3004 RMK AO2 SLP182 60001 T00670011 53011

More Conditions Fewer Conditions

Pressure 30.07 in
Visibility 10.0 miles
Clouds Scattered Clouds 6000 ft
Windchill 39 °F
Dew Point 34 °F
Humidity 68%
Rainfall 0.01 in
Snow Depth Not available.
UV 0 out of 12
Pollen 4.60 out of 12
Air Quality Not available.
Flu Activity Local Activity
METAR KCDR 190853Z AUTO 34008KT 10SM SCT060 07/01 A3004 RMK AO2 SLP182 60001 T00670011 53011

More Conditions Fewer Conditions

10-Day Weather Forecast

Almanac

Astronomy

Apr. 19, 2015 Rise Set
Actual Time
Civil Twilight
Nautical Twilight
Astronomical Twilight
Moon
Length of Visible Light
Length of Day
Tomorrow will be .
, % of the Moon is Illuminated

Today's Extremes

State Highs State Lows

Community

WunderPhotos

Upload Photos

1,814,753 photos uploaded!

WunderBlogs® & News

Nearby

Air Quality

  Air Quality AQ Index Pollutant
Not available.

Snow Depth

Station Depth Elevation

Earthquake Activity

City Distance Mag. Time & Date
Minimum magnitude displayed is 2.5.

Coastal Water Temperatures

Place Temperature

Stations

Nearby Weather Stations

Station Location Temp. Windchill Dew Point Humidity Wind Precip. Elev Updated Type